Time;durP1;ratioP1;P1;durP2;ratioP2;P2;SDS_P1;SDS_P2;PMS_P1;PMS_P2;Temp;Humidity;BMP_temperature;BMP_pressure;BME280_temperature;BME280_humidity;BME280_pressure;Samples;Min_cycle;Max_cycle;Signal;HPM_P1;HPM_P2
2021/04/20 00:02:11;;;;;;;27.13;16.27;;;10.00;99.90;;;;;;5033257;28;20542;-53
2021/04/20 00:04:37;;;;;;;26.67;16.33;;;9.90;99.90;;;;;;5036985;28;20216;-53
2021/04/20 00:07:04;;;;;;;24.17;16.47;;;9.90;99.90;;;;;;5032310;28;20845;-53
2021/04/20 00:09:31;;;;;;;26.53;16.97;;;10.00;99.90;;;;;;5037285;28;20247;-53
2021/04/20 00:11:57;;;;;;;27.07;17.10;;;9.80;99.90;;;;;;5035892;28;20208;-53
2021/04/20 00:14:23;;;;;;;24.87;16.90;;;9.90;99.90;;;;;;5029247;28;20196;-53
2021/04/20 00:16:50;;;;;;;23.93;15.83;;;9.90;99.90;;;;;;5027051;28;20205;-53
2021/04/20 00:19:17;;;;;;;21.80;13.93;;;9.90;99.90;;;;;;5038661;28;20639;-53
2021/04/20 00:21:43;;;;;;;19.33;12.40;;;9.80;99.90;;;;;;5031925;28;20213;-53
2021/04/20 00:24:10;;;;;;;18.07;11.77;;;9.80;99.90;;;;;;5034309;28;20210;-53
2021/04/20 00:26:36;;;;;;;15.80;11.47;;;9.70;99.90;;;;;;5019373;28;20221;-53
2021/04/20 00:29:02;;;;;;;20.27;12.43;;;9.50;99.90;;;;;;5030045;28;20203;-53
2021/04/20 00:31:29;;;;;;;16.53;11.33;;;9.50;99.90;;;;;;5038030;28;20201;-53
2021/04/20 00:33:55;;;;;;;19.70;13.10;;;9.40;99.90;;;;;;5033089;28;20257;-53
2021/04/20 00:36:21;;;;;;;16.90;11.80;;;9.40;99.90;;;;;;5029884;28;20832;-53
2021/04/20 00:38:48;;;;;;;16.37;11.67;;;9.40;99.90;;;;;;5032988;28;20275;-53
2021/04/20 00:41:15;;;;;;;17.53;11.30;;;9.50;99.90;;;;;;5037593;28;20239;-53
2021/04/20 00:43:46;;;;;;;16.03;10.50;;;9.50;99.90;;;;;;5039881;28;20208;-53
2021/04/20 00:46:15;;;;;;;19.83;12.43;;;9.50;99.90;;;;;;5035542;28;20274;-53
2021/04/20 00:48:42;;;;;;;19.10;12.23;;;9.40;99.90;;;;;;5029709;28;20199;-53
2021/04/20 00:51:10;;;;;;;15.93;11.73;;;9.30;99.90;;;;;;5028212;28;20244;-52
2021/04/20 00:53:37;;;;;;;17.73;12.27;;;9.40;99.90;;;;;;5031641;28;20231;-53
2021/04/20 00:56:04;;;;;;;22.07;12.90;;;9.40;99.90;;;;;;5030873;28;20758;-53
2021/04/20 00:58:31;;;;;;;18.30;12.00;;;9.40;99.90;;;;;;5034618;28;20251;-53
2021/04/20 01:00:58;;;;;;;21.23;13.40;;;9.30;99.90;;;;;;5027443;28;20322;-53
2021/04/20 01:03:25;;;;;;;20.47;13.43;;;9.30;99.90;;;;;;5031063;28;20228;-52
2021/04/20 01:05:54;;;;;;;20.80;13.33;;;9.30;99.90;;;;;;5041067;28;20632;-53
2021/04/20 01:08:23;;;;;;;20.17;13.40;;;9.40;99.90;;;;;;5037272;28;20292;-53
2021/04/20 01:10:53;;;;;;;20.90;13.93;;;9.40;99.90;;;;;;5040625;28;20300;-53
2021/04/20 01:13:25;;;;;;;22.50;12.87;;;9.10;99.90;;;;;;5029723;28;20804;-53
2021/04/20 01:15:53;;;;;;;18.43;12.63;;;9.30;99.90;;;;;;5030431;28;20295;-53
2021/04/20 01:18:26;;;;;;;18.73;13.50;;;9.30;99.90;;;;;;5032209;28;20667;-52
2021/04/20 01:21:05;;;;;;;17.63;11.93;;;9.30;99.90;;;;;;5029263;28;20240;-53
2021/04/20 01:23:56;;;;;;;16.83;10.63;;;9.10;99.90;;;;;;5033563;28;20191;-53
2021/04/20 01:26:27;;;;;;;13.73;9.17;;;9.20;99.90;;;;;;5042274;28;20223;-53
2021/04/20 01:28:54;;;;;;;12.93;9.07;;;9.30;99.90;;;;;;5035907;28;20223;-53
2021/04/20 01:31:22;;;;;;;14.70;9.80;;;9.30;99.90;;;;;;5033895;28;20204;-53
2021/04/20 01:33:49;;;;;;;10.87;8.23;;;8.80;99.90;;;;;;5032429;28;20291;-53
2021/04/20 01:36:18;;;;;;;15.30;10.07;;;8.30;99.90;;;;;;5031561;28;20612;-53
2021/04/20 01:38:46;;;;;;;14.30;10.53;;;8.10;99.90;;;;;;5040236;28;20246;-53
2021/04/20 01:41:13;;;;;;;13.70;9.50;;;8.40;99.90;;;;;;5030637;28;20222;-53
2021/04/20 01:43:40;;;;;;;12.80;9.30;;;8.60;99.90;;;;;;5032383;28;20215;-53
2021/04/20 01:46:07;;;;;;;16.33;11.03;;;8.60;99.90;;;;;;5037796;28;21015;-53
2021/04/20 01:48:34;;;;;;;13.50;9.37;;;8.70;99.90;;;;;;5036498;28;21149;-53
2021/04/20 01:51:03;;;;;;;13.27;9.47;;;8.80;99.90;;;;;;5029623;28;20263;-53
2021/04/20 01:53:30;;;;;;;17.57;11.50;;;8.70;99.90;;;;;;5037190;28;20227;-53
2021/04/20 01:56:01;;;;;;;15.40;10.73;;;8.70;99.90;;;;;;5032927;28;20258;-53
2021/04/20 01:58:29;;;;;;;19.03;12.63;;;8.60;99.90;;;;;;5028557;28;20243;-53
2021/04/20 02:00:56;;;;;;;18.20;12.37;;;8.70;99.90;;;;;;5036036;28;20252;-53
2021/04/20 02:03:25;;;;;;;21.50;12.53;;;8.80;99.90;;;;;;5029924;28;20721;-53
2021/04/20 02:05:52;;;;;;;17.83;12.07;;;9.00;99.90;;;;;;5037312;28;20224;-53
2021/04/20 02:08:19;;;;;;;17.57;11.63;;;9.00;99.90;;;;;;5046272;28;20197;-53
2021/04/20 02:10:45;;;;;;;15.20;11.07;;;9.10;99.90;;;;;;5040478;28;20517;-53
2021/04/20 02:13:12;;;;;;;16.93;12.00;;;9.00;99.90;;;;;;5033380;28;20860;-52
2021/04/20 02:15:38;;;;;;;16.73;11.53;;;8.90;99.90;;;;;;5031471;28;20201;-53
2021/04/20 02:18:07;;;;;;;19.57;11.23;;;8.70;99.90;;;;;;5040987;28;20690;-52
2021/04/20 02:20:35;;;;;;;16.43;10.83;;;8.30;99.90;;;;;;5041594;28;20219;-53
2021/04/20 02:23:02;;;;;;;15.67;11.37;;;8.40;99.90;;;;;;5041472;28;20238;-53
2021/04/20 02:25:29;;;;;;;15.67;11.03;;;8.50;99.90;;;;;;5040494;28;20226;-53
2021/04/20 02:27:56;;;;;;;19.90;11.63;;;8.50;99.90;;;;;;5037929;28;20296;-53
2021/04/20 02:30:24;;;;;;;17.10;12.00;;;8.50;99.90;;;;;;5035799;28;20510;-53
2021/04/20 02:32:51;;;;;;;17.40;12.37;;;8.40;99.90;;;;;;5036591;28;20644;-53
2021/04/20 02:35:19;;;;;;;16.60;11.07;;;8.50;99.90;;;;;;5034907;28;20189;-53
2021/04/20 02:37:47;;;;;;;16.03;11.00;;;8.50;99.90;;;;;;5042409;28;20274;-53
2021/04/20 02:40:19;;;;;;;16.63;11.07;;;8.50;99.90;;;;;;5046656;28;20232;-53
2021/04/20 02:42:51;;;;;;;18.07;11.37;;;8.40;99.90;;;;;;5037483;28;20590;-52
2021/04/20 02:45:22;;;;;;;13.40;9.63;;;8.40;99.90;;;;;;5033832;28;20652;-53
2021/04/20 02:47:49;;;;;;;16.87;11.27;;;8.40;99.90;;;;;;5043329;28;20199;-53
2021/04/20 02:50:21;;;;;;;17.77;12.03;;;8.40;99.90;;;;;;5039392;28;20253;-53
2021/04/20 02:52:49;;;;;;;16.90;12.23;;;8.40;99.90;;;;;;5043681;28;20705;-53
2021/04/20 02:55:16;;;;;;;17.00;10.57;;;8.40;99.90;;;;;;5036654;28;20545;-53
2021/04/20 02:57:45;;;;;;;18.87;11.17;;;8.30;99.90;;;;;;5030547;28;20629;-53
2021/04/20 03:00:18;;;;;;;17.10;11.77;;;8.30;99.90;;;;;;5033557;28;20234;-53
2021/04/20 03:02:46;;;;;;;17.93;11.20;;;8.40;99.90;;;;;;5035111;28;20876;-53
2021/04/20 03:05:17;;;;;;;21.60;13.10;;;8.30;99.90;;;;;;5027847;28;20281;-53
2021/04/20 03:07:46;;;;;;;20.30;13.03;;;8.30;99.90;;;;;;5031732;28;20199;-53
2021/04/20 03:10:15;;;;;;;19.37;13.27;;;8.30;99.90;;;;;;5031259;28;20640;-53
2021/04/20 03:12:42;;;;;;;26.07;15.17;;;8.30;99.90;;;;;;5033057;28;20203;-53
2021/04/20 03:15:12;;;;;;;20.87;14.13;;;8.30;99.90;;;;;;5036110;28;20223;-53
2021/04/20 03:17:40;;;;;;;21.30;13.53;;;8.40;99.90;;;;;;5038505;28;20199;-53
2021/04/20 03:20:08;;;;;;;19.23;13.73;;;8.40;99.90;;;;;;5033558;28;20192;-53
2021/04/20 03:22:36;;;;;;;21.97;14.03;;;8.30;99.90;;;;;;5033732;28;20709;-53
2021/04/20 03:25:06;;;;;;;22.90;14.77;;;8.30;99.90;;;;;;5034336;28;20204;-53
2021/04/20 03:27:37;;;;;;;24.33;12.90;;;8.30;99.90;;;;;;5042034;28;20255;-53
2021/04/20 03:30:05;;;;;;;19.90;13.23;;;8.30;99.90;;;;;;5042619;28;20498;-52
2021/04/20 03:32:31;;;;;;;21.40;13.27;;;8.20;99.90;;;;;;5032379;28;20204;-53
2021/04/20 03:35:03;;;;;;;21.10;14.00;;;8.20;99.90;;;;;;5036470;28;20269;-53
2021/04/20 03:38:04;;;;;;;24.87;15.87;;;8.30;99.90;;;;;;5050935;28;20222;-53
2021/04/20 03:40:33;;;;;;;24.93;15.70;;;8.30;99.90;;;;;;5039225;28;20225;-52
2021/04/20 03:43:03;;;;;;;24.43;16.10;;;8.30;99.90;;;;;;5034588;28;20263;-53
2021/04/20 03:45:37;;;;;;;25.90;16.03;;;8.30;99.90;;;;;;5030144;28;20204;-53
2021/04/20 03:48:12;;;;;;;27.30;16.47;;;8.30;99.90;;;;;;5030087;28;20316;-53
2021/04/20 03:50:41;;;;;;;22.10;14.63;;;8.30;99.90;;;;;;5032169;28;20250;-53
2021/04/20 03:53:13;;;;;;;23.90;16.30;;;8.30;99.90;;;;;;5034534;28;20271;-53
2021/04/20 03:55:41;;;;;;;26.17;17.03;;;8.20;99.90;;;;;;5036164;28;20291;-53
2021/04/20 03:58:12;;;;;;;25.83;17.13;;;8.30;99.90;;;;;;5037239;28;20548;-53
2021/04/20 04:00:40;;;;;;;26.20;13.90;;;8.20;99.90;;;;;;5037946;28;20225;-52
2021/04/20 04:03:09;;;;;;;23.47;14.13;;;8.20;99.90;;;;;;5030964;28;22104;-53
2021/04/20 04:05:39;;;;;;;23.13;15.20;;;8.20;99.90;;;;;;5031822;28;20238;-53
2021/04/20 04:08:07;;;;;;;20.00;13.77;;;8.20;99.90;;;;;;5027438;28;20216;-53
2021/04/20 04:10:36;;;;;;;27.67;18.10;;;8.20;99.90;;;;;;5033870;28;20307;-53
2021/04/20 04:13:06;;;;;;;28.27;17.93;;;8.20;99.90;;;;;;5035183;28;20224;-52
2021/04/20 04:15:36;;;;;;;26.83;18.03;;;8.20;99.90;;;;;;5032102;28;20515;-53
2021/04/20 04:18:08;;;;;;;30.37;19.87;;;8.20;99.90;;;;;;5028958;28;20255;-53
2021/04/20 04:20:34;;;;;;;31.07;19.67;;;8.30;99.90;;;;;;5030953;28;20212;-53
2021/04/20 04:23:24;;;;;;;29.23;18.03;;;8.30;99.90;;;;;;5030417;28;20192;-53
2021/04/20 04:25:58;;;;;;;29.27;18.33;;;8.30;99.90;;;;;;5035028;28;20273;-53
2021/04/20 04:28:25;;;;;;;27.43;17.67;;;8.30;99.90;;;;;;5029058;28;20217;-52
2021/04/20 04:30:52;;;;;;;25.67;17.50;;;8.30;99.90;;;;;;5030125;28;20265;-53
2021/04/20 04:33:19;;;;;;;25.80;17.10;;;8.20;99.90;;;;;;5031436;28;20295;-53
2021/04/20 04:35:48;;;;;;;27.20;17.33;;;8.10;99.90;;;;;;5032898;28;20211;-52
2021/04/20 04:38:16;;;;;;;19.50;13.40;;;8.20;99.90;;;;;;5031216;28;20746;-53
2021/04/20 04:40:43;;;;;;;16.20;11.17;;;8.10;99.90;;;;;;5035330;28;20549;-53
2021/04/20 04:43:09;;;;;;;10.13;6.50;;;8.10;99.90;;;;;;5034764;28;20260;-53
2021/04/20 04:45:36;;;;;;;6.77;5.40;;;7.40;99.90;;;;;;5036011;28;20284;-52
2021/04/20 04:48:03;;;;;;;5.47;4.20;;;7.10;99.90;;;;;;5029893;28;20503;-52
2021/04/20 04:50:30;;;;;;;4.93;4.27;;;7.00;99.90;;;;;;5035644;28;20233;-52
2021/04/20 04:52:57;;;;;;;5.83;4.73;;;7.10;99.90;;;;;;5036085;28;20310;-52
2021/04/20 04:55:24;;;;;;;7.87;6.10;;;7.20;99.90;;;;;;5034161;28;20293;-52
2021/04/20 04:57:51;;;;;;;5.40;4.50;;;7.10;99.90;;;;;;5033999;28;20266;-52
2021/04/20 05:00:18;;;;;;;5.70;4.37;;;7.20;99.90;;;;;;5036009;28;20229;-52
2021/04/20 05:02:45;;;;;;;6.03;5.03;;;7.00;99.90;;;;;;5032493;28;20230;-52
2021/04/20 05:05:15;;;;;;;5.97;4.97;;;7.00;99.90;;;;;;5036055;28;20203;-52
2021/04/20 05:07:42;;;;;;;4.37;3.97;;;7.20;99.90;;;;;;5033834;28;20205;-52
2021/04/20 05:10:11;;;;;;;5.10;4.60;;;7.40;99.90;;;;;;5029770;28;20255;-52
2021/04/20 05:12:37;;;;;;;6.60;5.63;;;7.50;99.90;;;;;;5033387;28;20296;-52
2021/04/20 05:15:12;;;;;;;8.33;6.40;;;7.60;99.90;;;;;;5037624;28;20763;-52
2021/04/20 05:17:43;;;;;;;7.50;6.20;;;7.60;99.90;;;;;;5040117;28;20215;-51
2021/04/20 05:20:17;;;;;;;8.90;6.03;;;7.50;99.90;;;;;;5031876;28;20276;-52
2021/04/20 05:22:45;;;;;;;10.57;7.17;;;7.60;99.90;;;;;;5033102;28;20231;-52
2021/04/20 05:25:16;;;;;;;13.10;8.83;;;7.60;99.90;;;;;;5034236;28;20294;-52
2021/04/20 05:27:50;;;;;;;13.37;9.30;;;7.70;99.90;;;;;;5032325;28;20222;-52
2021/04/20 05:30:18;;;;;;;12.50;9.03;;;7.70;99.90;;;;;;5034182;28;20558;-53
2021/04/20 05:32:52;;;;;;;11.90;8.27;;;7.80;99.90;;;;;;5039806;28;20230;-53
2021/04/20 05:35:21;;;;;;;11.00;8.03;;;7.80;99.90;;;;;;5036544;28;20213;-53
2021/04/20 05:37:48;;;;;;;12.47;9.43;;;7.90;99.90;;;;;;5039451;28;20483;-52
2021/04/20 05:40:17;;;;;;;9.87;7.57;;;7.80;99.90;;;;;;5039008;28;20233;-53
2021/04/20 05:42:44;;;;;;;13.47;9.00;;;8.00;99.90;;;;;;5035149;28;20224;-53
2021/04/20 05:45:13;;;;;;;13.50;9.53;;;8.10;99.90;;;;;;5038125;28;20274;-53
2021/04/20 05:47:40;;;;;;;13.90;9.77;;;8.20;99.90;;;;;;5040576;28;20211;-53
2021/04/20 05:50:09;;;;;;;16.30;10.73;;;8.20;99.90;;;;;;5037921;28;20202;-53
2021/04/20 05:52:36;;;;;;;17.00;11.23;;;8.30;99.90;;;;;;5038032;28;20227;-53
2021/04/20 05:55:06;;;;;;;18.30;11.77;;;8.40;99.90;;;;;;5037320;28;20241;-53
2021/04/20 05:57:32;;;;;;;25.07;15.57;;;8.50;99.90;;;;;;5045349;28;20266;-53
2021/04/20 06:00:00;;;;;;;26.30;16.70;;;8.70;99.90;;;;;;5041018;28;20258;-53
2021/04/20 06:02:34;;;;;;;24.87;16.53;;;8.80;99.90;;;;;;5033032;28;20240;-53
2021/04/20 06:05:05;;;;;;;32.57;18.43;;;8.90;99.90;;;;;;5037480;28;20193;-52
2021/04/20 06:07:35;;;;;;;27.17;17.93;;;9.10;99.90;;;;;;5043289;28;20191;-53
2021/04/20 06:10:05;;;;;;;31.87;18.70;;;9.20;99.90;;;;;;5034415;28;20190;-53
2021/04/20 06:12:32;;;;;;;38.30;22.80;;;9.20;99.90;;;;;;5039810;28;20232;-53
2021/04/20 06:14:59;;;;;;;35.90;22.97;;;9.40;99.90;;;;;;5033413;28;20226;-53
2021/04/20 06:17:25;;;;;;;36.73;23.07;;;9.60;99.90;;;;;;5039191;28;20216;-53
2021/04/20 06:19:52;;;;;;;45.07;25.77;;;9.80;99.90;;;;;;5034679;28;20215;-53
2021/04/20 06:22:19;;;;;;;37.03;22.43;;;10.00;99.90;;;;;;5029849;28;20302;-53
2021/04/20 06:24:46;;;;;;;40.10;23.90;;;10.10;99.90;;;;;;5037149;28;20597;-53
2021/04/20 06:27:14;;;;;;;39.30;24.40;;;10.20;99.90;;;;;;5036596;28;20217;-53
2021/04/20 06:29:41;;;;;;;41.67;24.17;;;10.40;99.90;;;;;;5034749;28;20296;-53
2021/04/20 06:32:10;;;;;;;35.40;23.67;;;10.50;99.90;;;;;;5038405;28;20210;-53
2021/04/20 06:34:38;;;;;;;40.10;25.60;;;10.50;99.90;;;;;;5032157;28;20538;-53
2021/04/20 06:37:09;;;;;;;40.27;23.90;;;10.70;99.90;;;;;;5028816;28;20217;-52
2021/04/20 06:39:37;;;;;;;39.83;23.00;;;10.80;99.90;;;;;;5033724;28;20252;-51
2021/04/20 06:42:07;;;;;;;42.10;25.37;;;11.10;99.90;;;;;;5033612;28;20258;-53
2021/04/20 06:44:45;;;;;;;36.23;23.63;;;11.20;99.90;;;;;;5034962;28;20284;-51
2021/04/20 06:47:37;;;;;;;39.13;24.73;;;11.30;99.90;;;;;;5038361;28;20206;-52
2021/04/20 06:50:06;;;;;;;40.23;24.87;;;11.70;99.90;;;;;;5036035;28;20228;-52
2021/04/20 06:52:57;;;;;;;36.13;23.40;;;11.90;99.90;;;;;;5034178;28;20194;-52
2021/04/20 06:55:44;;;;;;;38.87;25.23;;;11.90;99.90;;;;;;5034030;28;20219;-52
2021/04/20 06:58:19;;;;;;;35.63;22.30;;;11.90;99.90;;;;;;5035651;28;20559;-51
2021/04/20 07:00:52;;;;;;;37.27;24.40;;;11.90;99.90;;;;;;5034889;28;20227;-52
2021/04/20 07:04:10;;;;;;;36.70;23.17;;;12.10;99.90;;;;;;5035627;28;20210;-52
2021/04/20 07:07:17;;;;;;;38.73;23.47;;;12.40;99.90;;;;;;5033342;28;20604;-52
2021/04/20 07:09:50;;;;;;;36.93;24.00;;;12.60;99.90;;;;;;5011472;28;20203;-52
2021/04/20 07:12:17;;;;;;;35.90;22.53;;;12.70;99.90;;;;;;5034405;28;20301;-52
2021/04/20 07:14:54;;;;;;;37.30;23.37;;;12.80;35.90;;;;;;5034299;28;20679;-51
2021/04/20 07:17:58;;;;;;;37.60;24.40;;;12.50;99.90;;;;;;5029414;28;20277;-52
2021/04/20 07:20:49;;;;;;;39.27;24.63;;;12.90;1.00;;;;;;5031563;28;20202;-52
2021/04/20 07:23:30;;;;;;;36.70;23.90;;;13.00;1.00;;;;;;5039375;28;20221;-52
2021/04/20 07:26:36;;;;;;;35.83;22.60;;;13.00;1.00;;;;;;5033363;28;20247;-52
2021/04/20 07:29:28;;;;;;;40.10;24.90;;;12.90;1.00;;;;;;5020585;28;20251;-51
2021/04/20 07:32:00;;;;;;;41.23;25.00;;;13.30;1.00;;;;;;5034183;28;20251;-52
2021/04/20 07:34:34;;;;;;;38.37;24.17;;;13.30;99.90;;;;;;5038064;28;20775;-52
2021/04/20 07:37:28;;;;;;;36.13;23.47;;;13.50;99.90;;;;;;5035588;28;20192;-52
2021/04/20 07:40:08;;;;;;;37.63;24.37;;;13.20;99.90;;;;;;5037651;28;20614;-54
2021/04/20 07:43:11;;;;;;;37.93;24.50;;;13.20;99.90;;;;;;5031646;28;20292;-52
2021/04/20 07:45:51;;;;;;;39.13;24.77;;;13.50;1.00;;;;;;5031280;28;20197;-51
2021/04/20 07:48:34;;;;;;;36.10;23.13;;;13.80;99.90;;;;;;5030608;28;20203;-52
2021/04/20 07:51:08;;;;;;;35.87;24.50;;;13.90;1.00;;;;;;5032471;28;20193;-52
2021/04/20 07:53:55;;;;;;;35.73;22.67;;;14.30;1.00;;;;;;5033176;28;20606;-52
2021/04/20 07:56:30;;;;;;;38.87;24.23;;;14.30;99.90;;;;;;5029576;28;20289;-55
2021/04/20 07:58:59;;;;;;;39.57;23.83;;;14.30;1.00;;;;;;5033598;28;20286;-53
2021/04/20 08:01:59;;;;;;;37.70;23.60;;;14.60;1.00;;;;;;5031310;28;20278;-52
2021/04/20 08:04:50;;;;;;;38.57;23.67;;;14.60;99.90;;;;;;5031174;28;20195;-52
2021/04/20 08:07:42;;;;;;;37.93;24.13;;;14.70;1.00;;;;;;5032001;28;20739;-52
2021/04/20 08:10:11;;;;;;;34.90;22.83;;;14.80;1.00;;;;;;5034174;28;20203;-53
2021/04/20 08:13:19;;;;;;;38.57;25.17;;;14.80;99.90;;;;;;5032899;28;20594;-52
2021/04/20 08:15:54;;;;;;;36.47;22.77;;;15.20;99.90;;;;;;5032415;28;20271;-54
2021/04/20 08:18:39;;;;;;;37.57;24.60;;;15.60;1.00;;;;;;5032997;28;20318;-52
2021/04/20 08:21:07;;;;;;;36.20;23.20;;;15.90;99.90;;;;;;5034302;28;20297;-52
2021/04/20 08:23:40;;;;;;;38.20;24.70;;;15.90;99.90;;;;;;5031499;28;20663;-52
2021/04/20 08:26:14;;;;;;;37.37;24.43;;;15.90;99.30;;;;;;5033070;28;20206;-53
2021/04/20 08:28:54;;;;;;;36.40;24.07;;;16.30;97.80;;;;;;5032362;28;20339;-53
2021/04/20 08:31:38;;;;;;;36.10;23.47;;;16.50;96.00;;;;;;5035116;28;20250;-52
2021/04/20 08:34:24;;;;;;;36.73;22.43;;;16.60;91.50;;;;;;5037958;28;20271;-52
2021/04/20 08:37:13;;;;;;;33.43;23.20;;;16.90;88.20;;;;;;5030412;28;20207;-52
2021/04/20 08:39:58;;;;;;;31.07;22.07;;;16.80;91.20;;;;;;5033246;28;20273;-53
2021/04/20 08:42:35;;;;;;;33.10;22.33;;;17.30;91.50;;;;;;5027922;28;20307;-52
2021/04/20 08:45:07;;;;;;;34.83;22.23;;;17.50;86.50;;;;;;5029079;28;20276;-53
2021/04/20 08:47:54;;;;;;;37.70;23.93;;;17.80;83.60;;;;;;5032486;28;20307;-53
2021/04/20 08:50:25;;;;;;;32.87;22.40;;;17.80;81.20;;;;;;5031514;28;20241;-52
2021/04/20 08:53:15;;;;;;;33.83;23.10;;;18.20;82.90;;;;;;5030111;28;20609;-52
2021/04/20 08:56:18;;;;;;;33.93;21.27;;;18.20;75.00;;;;;;5035807;28;20253;-52
2021/04/20 08:59:08;;;;;;;32.43;21.33;;;18.30;71.80;;;;;;5040153;28;20208;-53
2021/04/20 09:02:00;;;;;;;31.63;22.20;;;18.50;69.90;;;;;;5032891;28;20244;-52
2021/04/20 09:04:45;;;;;;;30.17;21.57;;;18.80;67.70;;;;;;5034883;28;20229;-52
2021/04/20 09:07:37;;;;;;;28.97;20.80;;;18.70;69.70;;;;;;5038508;28;20206;-52
2021/04/20 09:10:13;;;;;;;31.60;21.60;;;18.90;62.30;;;;;;5036199;28;20334;-53
2021/04/20 09:12:42;;;;;;;30.20;20.20;;;18.40;60.30;;;;;;5040573;28;20246;-52
2021/04/20 09:15:10;;;;;;;28.03;18.60;;;17.90;67.20;;;;;;5039818;28;20316;-52
2021/04/20 09:17:54;;;;;;;25.60;17.87;;;18.40;62.60;;;;;;5032682;28;20681;-52
2021/04/20 09:20:47;;;;;;;27.43;18.07;;;18.50;60.70;;;;;;5031610;28;20247;-52
2021/04/20 09:23:24;;;;;;;25.03;17.27;;;18.70;63.10;;;;;;5035900;28;20260;-52
2021/04/20 09:25:54;;;;;;;25.97;17.47;;;18.90;59.20;;;;;;5030070;28;20288;-52
2021/04/20 09:28:40;;;;;;;22.50;16.03;;;19.10;55.40;;;;;;5037887;28;20229;-52
2021/04/20 09:31:18;;;;;;;24.47;17.37;;;19.00;55.60;;;;;;5038379;28;20324;-52
2021/04/20 09:33:53;;;;;;;22.33;16.03;;;18.30;56.90;;;;;;5034773;28;20256;-52
2021/04/20 09:36:21;;;;;;;26.70;17.10;;;18.10;99.90;;;;;;5031656;28;20568;-52
2021/04/20 09:38:50;;;;;;;22.70;15.03;;;18.50;60.40;;;;;;5033028;28;20244;-52
2021/04/20 09:41:40;;;;;;;21.23;15.33;;;18.90;51.10;;;;;;5037556;28;20695;-52
2021/04/20 09:44:49;;;;;;;18.00;13.13;;;18.50;56.50;;;;;;5033676;28;20220;-52
2021/04/20 09:47:34;;;;;;;15.67;10.60;;;19.00;49.40;;;;;;5033010;28;20198;-52
2021/04/20 09:50:36;;;;;;;18.53;12.50;;;19.40;42.90;;;;;;5031762;28;20740;-52
2021/04/20 09:53:14;;;;;;;18.43;13.83;;;18.90;41.70;;;;;;5030263;28;20234;-52
2021/04/20 09:56:01;;;;;;;19.37;14.43;;;19.00;45.20;;;;;;5034982;28;20257;-52
2021/04/20 09:58:29;;;;;;;19.57;13.60;;;19.10;47.10;;;;;;5036617;28;20283;-52
2021/04/20 10:01:04;;;;;;;21.20;14.40;;;19.30;47.50;;;;;;5034104;28;20228;-52
2021/04/20 10:03:45;;;;;;;19.47;13.53;;;19.40;47.90;;;;;;5027894;28;20267;-55
2021/04/20 10:06:49;;;;;;;16.90;12.23;;;19.40;44.70;;;;;;5034376;28;20194;-53
2021/04/20 10:09:31;;;;;;;21.83;14.60;;;19.80;41.90;;;;;;5032928;28;20301;-53
2021/04/20 10:12:07;;;;;;;26.73;16.43;;;19.80;41.70;;;;;;5031351;28;20654;-51
2021/04/20 10:14:59;;;;;;;23.27;16.27;;;19.80;41.80;;;;;;5029902;28;20529;-52
2021/04/20 10:17:44;;;;;;;20.53;14.30;;;19.00;46.40;;;;;;5030931;28;20285;-52
2021/04/20 10:20:36;;;;;;;21.40;14.80;;;19.10;45.90;;;;;;5039336;28;20212;-54
2021/04/20 10:23:17;;;;;;;20.80;14.40;;;19.00;42.50;;;;;;5039580;28;20867;-52
2021/04/20 10:26:16;;;;;;;19.43;13.43;;;19.20;44.50;;;;;;5036404;28;20207;-52
2021/04/20 10:29:10;;;;;;;19.73;13.47;;;20.00;42.10;;;;;;5036094;28;20215;-52
2021/04/20 10:31:53;;;;;;;15.07;11.37;;;20.30;39.20;;;;;;5041272;28;20306;-54
2021/04/20 10:34:20;;;;;;;16.53;11.73;;;19.50;38.20;;;;;;5034257;28;20233;-52
2021/04/20 10:36:52;;;;;;;16.37;12.13;;;18.90;40.30;;;;;;5034235;28;20289;-54
2021/04/20 10:39:22;;;;;;;15.10;11.40;;;18.70;41.00;;;;;;5033925;28;20197;-52
2021/04/20 10:41:50;;;;;;;16.33;12.40;;;18.80;40.70;;;;;;5036039;28;20239;-52
2021/04/20 10:44:18;;;;;;;18.57;13.47;;;19.20;42.50;;;;;;5030275;28;20250;-52
2021/04/20 10:46:51;;;;;;;15.77;11.47;;;18.70;38.90;;;;;;5033151;28;20452;-52
2021/04/20 10:49:19;;;;;;;16.13;12.03;;;18.30;42.20;;;;;;5029372;28;20630;-52
2021/04/20 10:51:49;;;;;;;12.87;9.87;;;18.60;40.30;;;;;;5037260;28;20219;-52
2021/04/20 10:54:20;;;;;;;11.73;9.63;;;19.30;30.10;;;;;;5033703;28;20201;-52
2021/04/20 10:56:52;;;;;;;14.23;10.27;;;19.40;32.00;;;;;;5032215;28;20266;-52
2021/04/20 10:59:32;;;;;;;18.00;10.77;;;19.40;30.20;;;;;;5032542;28;20225;-52
2021/04/20 11:02:02;;;;;;;13.33;11.13;;;19.30;28.50;;;;;;5037967;28;20280;-54
2021/04/20 11:04:33;;;;;;;12.07;9.90;;;19.40;27.90;;;;;;5029890;28;20376;-52
2021/04/20 11:07:18;;;;;;;13.93;10.00;;;20.10;28.60;;;;;;5028095;28;20599;-52
2021/04/20 11:09:46;;;;;;;14.30;10.60;;;20.00;24.90;;;;;;5039190;28;20639;-52
2021/04/20 11:12:19;;;;;;;13.27;10.03;;;19.60;24.30;;;;;;5040498;28;20253;-52
2021/04/20 11:14:48;;;;;;;18.20;13.07;;;19.30;25.00;;;;;;5039944;28;20201;-53
2021/04/20 11:17:22;;;;;;;16.47;12.70;;;19.20;25.80;;;;;;5036778;28;20287;-54
2021/04/20 11:20:18;;;;;;;15.43;11.50;;;18.80;26.60;;;;;;5041892;28;20379;-52
2021/04/20 11:23:07;;;;;;;13.83;10.57;;;19.30;27.10;;;;;;5027965;28;20258;-53
2021/04/20 11:25:44;;;;;;;15.53;12.00;;;19.80;26.70;;;;;;5032220;28;20197;-52
2021/04/20 11:28:42;;;;;;;11.80;9.30;;;19.80;25.50;;;;;;5034971;28;20625;-52
2021/04/20 11:31:29;;;;;;;16.20;11.73;;;20.50;23.70;;;;;;5037716;28;20663;-52
2021/04/20 11:34:04;;;;;;;18.30;12.13;;;20.50;20.90;;;;;;5030822;28;20197;-52
2021/04/20 11:36:54;;;;;;;14.80;11.03;;;20.30;21.80;;;;;;5034707;28;20248;-52
2021/04/20 11:39:25;;;;;;;14.73;11.23;;;20.40;23.30;;;;;;5032201;28;20237;-52
2021/04/20 11:41:59;;;;;;;17.60;11.47;;;20.70;20.10;;;;;;5033915;28;20223;-52
2021/04/20 11:44:50;;;;;;;17.87;13.00;;;21.10;20.20;;;;;;5030212;28;20610;-52
2021/04/20 11:47:17;;;;;;;15.00;12.03;;;21.00;22.10;;;;;;5034526;28;20225;-52
2021/04/20 11:49:56;;;;;;;17.13;13.27;;;21.10;16.30;;;;;;5036854;28;20287;-52
2021/04/20 11:52:26;;;;;;;20.83;14.03;;;21.50;19.60;;;;;;5031641;28;20268;-52
2021/04/20 11:54:58;;;;;;;19.73;13.93;;;21.80;20.20;;;;;;5033854;28;20201;-52
2021/04/20 11:57:26;;;;;;;17.27;13.13;;;21.90;19.50;;;;;;5034642;28;20208;-52
2021/04/20 11:59:53;;;;;;;17.53;12.73;;;21.80;17.40;;;;;;5026907;28;20274;-52
2021/04/20 12:02:26;;;;;;;16.10;12.23;;;21.70;15.90;;;;;;5030896;28;20232;-52
2021/04/20 12:05:02;;;;;;;17.30;13.60;;;21.80;18.30;;;;;;5032055;28;20199;-52
2021/04/20 12:07:30;;;;;;;17.30;13.07;;;21.80;15.80;;;;;;5035056;28;20200;-53
2021/04/20 12:09:57;;;;;;;17.43;13.87;;;21.80;16.90;;;;;;5034308;28;20627;-52
2021/04/20 12:12:32;;;;;;;19.97;13.83;;;21.90;15.70;;;;;;5032502;28;20633;-52
2021/04/20 12:15:02;;;;;;;18.97;13.40;;;21.60;14.10;;;;;;5036658;28;20350;-52
2021/04/20 12:17:32;;;;;;;17.30;12.87;;;20.70;18.00;;;;;;5031347;28;20234;-52
2021/04/20 12:20:03;;;;;;;17.20;13.47;;;20.70;19.40;;;;;;5029254;28;20227;-52
2021/04/20 12:22:30;;;;;;;18.10;13.67;;;20.70;18.20;;;;;;5034362;28;20232;-52
2021/04/20 12:24:58;;;;;;;17.43;13.03;;;20.50;18.50;;;;;;5030354;28;20237;-52
2021/04/20 12:27:26;;;;;;;16.83;13.10;;;20.30;17.80;;;;;;5037212;28;20223;-52
2021/04/20 12:29:54;;;;;;;16.40;12.80;;;20.00;19.40;;;;;;5031885;28;20211;-53
2021/04/20 12:32:39;;;;;;;16.70;13.17;;;20.00;20.80;;;;;;5032289;28;20287;-52
2021/04/20 12:35:06;;;;;;;17.93;13.57;;;20.10;21.20;;;;;;5032145;28;20211;-52
2021/04/20 12:37:35;;;;;;;15.87;12.53;;;20.10;20.10;;;;;;5040528;28;20248;-52
2021/04/20 12:40:12;;;;;;;16.67;13.53;;;20.00;19.50;;;;;;5038122;28;20208;-52
2021/04/20 12:42:42;;;;;;;17.33;13.57;;;19.90;18.50;;;;;;5028157;28;20301;-53
2021/04/20 12:45:16;;;;;;;22.73;13.53;;;19.90;19.90;;;;;;5025153;28;20197;-53
2021/04/20 12:47:43;;;;;;;17.07;13.50;;;20.20;18.50;;;;;;5032862;28;20971;-53
2021/04/20 12:50:13;;;;;;;18.13;13.70;;;20.60;18.40;;;;;;5032292;28;20668;-53
2021/04/20 12:52:41;;;;;;;17.47;13.20;;;20.90;18.80;;;;;;5040767;28;20271;-53
2021/04/20 12:55:16;;;;;;;18.93;13.97;;;21.20;16.80;;;;;;5035966;28;20243;-53
2021/04/20 12:57:46;;;;;;;19.93;13.73;;;21.20;16.90;;;;;;5036326;28;20618;-53
2021/04/20 13:00:21;;;;;;;14.70;12.87;;;21.60;17.00;;;;;;5040416;28;20201;-53
2021/04/20 13:02:50;;;;;;;16.90;13.53;;;21.50;14.10;;;;;;5031298;28;20235;-53
2021/04/20 13:05:37;;;;;;;17.70;13.03;;;21.30;16.00;;;;;;5032313;28;20193;-53
2021/04/20 13:08:07;;;;;;;15.93;12.73;;;21.10;15.40;;;;;;5035045;28;20192;-53